Time;durP1;ratioP1;P1;durP2;ratioP2;P2;SDS_P1;SDS_P2;PMS_P1;PMS_P2;Temp;Humidity;BMP_temperature;BMP_pressure;BME280_temperature;BME280_humidity;BME280_pressure;Samples;Min_cycle;Max_cycle;Signal;HPM_P1;HPM_P2
2023/08/10 00:00:11;;;;;;;2.28;1.83;;;;;;;18.02;100.00;96959.59;5043925;28;20208;-61
2023/08/10 00:02:38;;;;;;;3.28;2.30;;;;;;;18.02;100.00;96967.63;5044041;28;20226;-60
2023/08/10 00:05:07;;;;;;;2.05;1.95;;;;;;;18.00;100.00;96962.44;5043654;28;20234;-61
2023/08/10 00:07:34;;;;;;;2.58;2.38;;;;;;;18.00;100.00;96969.63;5043064;28;20653;-61
2023/08/10 00:10:01;;;;;;;2.20;2.00;;;;;;;18.01;100.00;96957.94;5043891;28;20261;-61
2023/08/10 00:12:27;;;;;;;2.25;2.05;;;;;;;17.98;100.00;96960.97;5043601;28;20207;-61
2023/08/10 00:14:54;;;;;;;4.70;2.40;;;;;;;17.96;100.00;96955.78;5043955;28;20191;-59
2023/08/10 00:17:20;;;;;;;3.92;2.15;;;;;;;17.91;100.00;96952.84;5045777;28;20214;-61
2023/08/10 00:19:47;;;;;;;3.65;2.00;;;;;;;17.92;100.00;96951.00;5048311;28;20211;-61
2023/08/10 00:22:18;;;;;;;4.03;2.30;;;;;;;17.90;100.00;96952.00;5046824;28;20219;-60
2023/08/10 00:24:44;;;;;;;2.15;1.98;;;;;;;17.87;100.00;96954.22;5043058;28;20316;-59
2023/08/10 00:27:10;;;;;;;2.20;2.00;;;;;;;17.82;100.00;96945.88;5043226;28;20207;-60
2023/08/10 00:29:37;;;;;;;4.10;2.10;;;;;;;17.82;100.00;96946.72;5043346;28;20265;-60
2023/08/10 00:32:05;;;;;;;2.45;2.00;;;;;;;17.77;100.00;96938.41;5043303;28;20200;-60
2023/08/10 00:34:31;;;;;;;2.38;1.98;;;;;;;17.73;100.00;96939.78;5043538;28;20250;-61
2023/08/10 00:36:58;;;;;;;3.33;2.20;;;;;;;17.66;100.00;96930.81;5043303;28;20287;-60
2023/08/10 00:39:26;;;;;;;3.90;2.13;;;;;;;17.61;100.00;96938.53;5043325;28;20218;-59
2023/08/10 00:41:53;;;;;;;2.25;2.05;;;;;;;17.61;100.00;96938.53;5043284;28;20214;-60
2023/08/10 00:44:20;;;;;;;2.58;2.13;;;;;;;17.55;100.00;96933.88;5042996;28;20290;-60
2023/08/10 00:46:49;;;;;;;2.60;2.40;;;;;;;17.46;100.00;96943.00;5042451;28;20223;-62
2023/08/10 00:49:16;;;;;;;3.67;2.30;;;;;;;17.45;100.00;96945.81;5043689;28;20204;-61
2023/08/10 00:51:42;;;;;;;2.33;2.13;;;;;;;17.45;100.00;96943.16;5042598;28;20203;-60
2023/08/10 00:54:08;;;;;;;5.57;2.70;;;;;;;17.40;100.00;96939.16;5043031;28;20208;-59
2023/08/10 00:56:36;;;;;;;4.43;2.30;;;;;;;17.36;100.00;96942.38;5042170;28;20240;-61
2023/08/10 00:59:04;;;;;;;3.97;2.47;;;;;;;17.38;100.00;96948.38;5042531;28;20211;-60
2023/08/10 01:01:30;;;;;;;3.33;2.80;;;;;;;17.36;100.00;96942.38;5042403;28;20679;-61
2023/08/10 01:03:56;;;;;;;3.20;2.67;;;;;;;17.32;100.00;96941.09;5042122;28;20644;-61
2023/08/10 01:06:26;;;;;;;4.38;2.83;;;;;;;17.28;100.00;96937.09;5043155;28;20215;-60
2023/08/10 01:09:03;;;;;;;2.53;2.33;;;;;;;17.27;100.00;96935.44;5042494;28;20214;-60
2023/08/10 01:11:34;;;;;;;2.58;2.30;;;;;;;17.22;100.00;96932.44;5041173;28;20195;-60
2023/08/10 01:14:09;;;;;;;4.65;3.00;;;;;;;17.17;100.00;96935.66;5042885;28;20192;-59
2023/08/10 01:16:39;;;;;;;3.05;2.75;;;;;;;17.17;100.00;96935.66;5042659;28;20204;-60
2023/08/10 01:19:08;;;;;;;2.33;2.13;;;;;;;17.15;100.00;96934.16;5041886;28;20207;-60
2023/08/10 01:21:39;;;;;;;6.05;2.90;;;;;;;17.11;100.00;96940.88;5042109;28;20204;-59
2023/08/10 01:24:11;;;;;;;2.90;2.70;;;;;;;17.00;100.00;96936.78;5042381;28;20191;-60
2023/08/10 01:26:39;;;;;;;4.15;2.55;;;;;;;16.96;100.00;96939.97;5041447;28;20211;-61
2023/08/10 01:29:06;;;;;;;6.10;2.60;;;;;;;16.97;100.00;96938.97;5042673;28;20204;-60
2023/08/10 01:31:32;;;;;;;2.45;2.25;;;;;;;16.93;100.00;96939.28;5042144;28;20200;-61
2023/08/10 01:33:59;;;;;;;3.97;2.63;;;;;;;16.92;100.00;96943.00;5042113;28;20212;-62
2023/08/10 01:36:25;;;;;;;3.70;2.60;;;;;;;16.85;100.00;96944.69;5042477;28;20206;-59
2023/08/10 01:38:52;;;;;;;5.38;2.95;;;;;;;16.77;100.00;96949.22;5041867;28;20647;-60
2023/08/10 01:41:18;;;;;;;6.55;2.83;;;;;;;16.74;100.00;96949.59;5041252;28;20211;-60
2023/08/10 01:43:46;;;;;;;3.08;2.38;;;;;;;16.72;100.00;96946.25;5042698;28;20550;-60
2023/08/10 01:46:15;;;;;;;7.25;3.30;;;;;;;16.69;100.00;96944.75;5041646;28;20667;-61
2023/08/10 01:48:43;;;;;;;4.32;2.40;;;;;;;16.65;100.00;96950.63;5042592;28;20287;-60
2023/08/10 01:51:14;;;;;;;4.97;2.60;;;;;;;16.57;100.00;96948.81;5041753;28;20219;-61
2023/08/10 01:53:41;;;;;;;3.20;2.90;;;;;;;16.59;100.00;96954.81;5042385;28;20223;-61
2023/08/10 01:56:08;;;;;;;3.85;2.78;;;;;;;16.49;100.00;96950.66;5041504;28;20203;-60
2023/08/10 01:58:34;;;;;;;3.67;2.70;;;;;;;16.45;100.00;96955.50;5041119;28;20210;-59
2023/08/10 02:01:02;;;;;;;2.80;2.60;;;;;;;16.44;100.00;96951.16;5041753;28;20648;-60
2023/08/10 02:03:28;;;;;;;4.00;2.55;;;;;;;16.47;100.00;96956.19;5040530;28;20317;-60
2023/08/10 02:05:55;;;;;;;2.80;2.60;;;;;;;16.44;100.00;96954.66;5042356;28;20249;-60
2023/08/10 02:08:21;;;;;;;3.00;2.80;;;;;;;16.39;100.00;96950.84;5042093;28;20199;-62
2023/08/10 02:10:48;;;;;;;5.17;2.67;;;;;;;16.35;100.00;96955.69;5042412;28;20223;-62
2023/08/10 02:13:14;;;;;;;6.35;3.00;;;;;;;16.33;100.00;96962.22;5043085;28;20210;-61
2023/08/10 02:15:42;;;;;;;4.40;2.85;;;;;;;16.32;100.00;96961.38;5045122;28;20581;-60
2023/08/10 02:18:12;;;;;;;4.55;2.70;;;;;;;16.26;100.00;96953.25;5048372;28;20250;-61
2023/08/10 02:20:38;;;;;;;3.13;2.83;;;;;;;16.24;100.00;96952.56;5050508;28;20266;-60
2023/08/10 02:23:05;;;;;;;3.55;2.28;;;;;;;16.29;100.00;96958.22;5041021;28;20218;-60
2023/08/10 02:25:31;;;;;;;2.63;2.25;;;;;;;16.30;100.00;96958.03;5040734;28;20227;-60
2023/08/10 02:27:58;;;;;;;4.10;2.70;;;;;;;16.27;100.00;96957.53;5040712;28;20647;-59
2023/08/10 02:30:24;;;;;;;2.65;2.35;;;;;;;16.24;100.00;96963.22;5042228;28;20200;-60
2023/08/10 02:32:50;;;;;;;3.28;2.30;;;;;;;16.21;100.00;96958.25;5045197;28;21755;-60
2023/08/10 02:35:18;;;;;;;3.00;2.80;;;;;;;16.20;100.00;96956.56;5045176;28;20214;-59
2023/08/10 02:37:45;;;;;;;4.45;2.53;;;;;;;16.19;100.00;96957.59;5044115;28;20809;-60
2023/08/10 02:40:12;;;;;;;3.55;2.90;;;;;;;16.23;100.00;96964.22;5041473;28;20211;-60
2023/08/10 02:42:39;;;;;;;3.25;2.80;;;;;;;16.19;100.00;96968.25;5041196;28;20222;-60
2023/08/10 02:45:07;;;;;;;3.30;3.00;;;;;;;16.18;100.00;96969.25;5041365;28;20207;-59
2023/08/10 02:47:34;;;;;;;3.47;2.35;;;;;;;16.19;100.00;96971.75;5041649;28;20214;-60
2023/08/10 02:50:00;;;;;;;3.63;2.80;;;;;;;16.16;100.00;96972.09;5041602;28;20286;-59
2023/08/10 02:52:28;;;;;;;5.35;3.00;;;;;;;16.17;100.00;96962.25;5042126;28;20215;-60
2023/08/10 02:54:54;;;;;;;4.90;2.70;;;;;;;16.12;100.00;96959.28;5041410;28;20636;-61
2023/08/10 02:57:21;;;;;;;4.55;2.45;;;;;;;16.13;100.00;96972.41;5041295;28;20212;-59
2023/08/10 02:59:48;;;;;;;3.38;2.67;;;;;;;16.15;100.00;96970.44;5042021;28;20210;-60
2023/08/10 03:02:15;;;;;;;2.70;2.50;;;;;;;16.17;100.00;96973.75;5041541;28;20235;-60
2023/08/10 03:04:42;;;;;;;2.97;2.67;;;;;;;16.13;100.00;96975.09;5041483;28;20212;-60
2023/08/10 03:07:08;;;;;;;3.13;2.83;;;;;;;16.13;100.00;96974.25;5039958;28;20715;-60
2023/08/10 03:09:37;;;;;;;2.70;2.50;;;;;;;16.11;100.00;96981.59;5040884;28;20207;-60
2023/08/10 03:12:03;;;;;;;3.25;2.95;;;;;;;16.07;100.00;96978.44;5044226;28;20210;-61
2023/08/10 03:14:30;;;;;;;3.78;2.75;;;;;;;16.09;100.00;96987.09;5045021;28;20203;-60
2023/08/10 03:16:56;;;;;;;2.90;2.70;;;;;;;16.06;100.00;96982.09;5044854;28;20204;-60
2023/08/10 03:19:23;;;;;;;3.75;2.78;;;;;;;16.04;100.00;96980.63;5044755;28;20199;-60
2023/08/10 03:21:49;;;;;;;4.15;3.08;;;;;;;16.07;100.00;96982.94;5044473;28;20214;-61
2023/08/10 03:24:15;;;;;;;3.80;3.10;;;;;;;16.03;100.00;96978.94;5044760;28;20214;-60
2023/08/10 03:26:43;;;;;;;3.70;2.70;;;;;;;16.00;100.00;96981.94;5043653;28;20227;-61
2023/08/10 03:29:10;;;;;;;4.22;2.60;;;;;;;15.90;100.00;96980.31;5044955;28;20286;-59
2023/08/10 03:31:36;;;;;;;2.67;2.47;;;;;;;15.90;100.00;96982.97;5044176;28;20631;-60
2023/08/10 03:34:02;;;;;;;4.68;2.60;;;;;;;15.81;100.00;96988.44;5044008;28;20206;-61
2023/08/10 03:36:29;;;;;;;2.72;2.53;;;;;;;15.78;100.00;96992.31;5043998;28;20679;-59
2023/08/10 03:38:55;;;;;;;2.67;2.47;;;;;;;15.78;100.00;96984.28;5044528;28;20195;-60
2023/08/10 03:41:22;;;;;;;3.07;2.77;;;;;;;15.79;100.00;96993.97;5043192;28;20207;-61
2023/08/10 03:43:49;;;;;;;5.50;2.80;;;;;;;15.76;100.00;96996.13;5044431;28;20218;-61
2023/08/10 03:46:16;;;;;;;2.40;2.20;;;;;;;15.80;100.00;96995.63;5044669;28;20631;-60
2023/08/10 03:48:42;;;;;;;4.18;2.70;;;;;;;15.78;100.00;96994.13;5043904;28;20215;-59
2023/08/10 03:51:09;;;;;;;3.58;2.40;;;;;;;15.77;100.00;96995.97;5043286;28;20214;-59
2023/08/10 03:53:36;;;;;;;6.40;2.60;;;;;;;15.76;100.00;96994.31;5044052;28;20196;-60
2023/08/10 03:56:02;;;;;;;3.00;2.60;;;;;;;15.74;100.00;96996.28;5043998;28;20196;-60
2023/08/10 03:58:28;;;;;;;2.90;2.70;;;;;;;15.69;100.00;96997.81;5044017;28;20200;-59
2023/08/10 04:00:56;;;;;;;4.47;3.10;;;;;;;15.68;100.00;96996.97;5043515;28;20239;-60
2023/08/10 04:03:23;;;;;;;2.78;2.58;;;;;;;15.71;100.00;97003.78;5043564;28;20250;-61
2023/08/10 04:05:49;;;;;;;2.88;2.35;;;;;;;15.71;100.00;96998.47;5043953;28;20231;-60
2023/08/10 04:08:16;;;;;;;2.93;2.73;;;;;;;15.74;100.00;96998.13;5043272;28;20536;-61
2023/08/10 04:10:42;;;;;;;4.30;2.77;;;;;;;15.71;100.00;97001.97;5042528;28;20215;-61
2023/08/10 04:13:08;;;;;;;3.08;2.63;;;;;;;15.73;100.00;96999.94;5043913;28;20207;-60
2023/08/10 04:15:36;;;;;;;5.50;2.78;;;;;;;15.66;100.00;96996.28;5043780;28;20196;-60
2023/08/10 04:18:04;;;;;;;4.97;3.03;;;;;;;15.67;100.00;96997.97;5043334;28;20261;-60
2023/08/10 04:20:30;;;;;;;4.33;2.67;;;;;;;15.70;100.00;96999.44;5043731;28;20219;-60
2023/08/10 04:22:57;;;;;;;3.10;2.80;;;;;;;15.66;100.00;97001.63;5043470;28;20291;-61
2023/08/10 04:25:23;;;;;;;3.00;2.80;;;;;;;15.69;100.00;97005.81;5042083;28;20210;-60
2023/08/10 04:27:50;;;;;;;3.23;2.50;;;;;;;15.68;100.00;96994.28;5042399;28;20265;-59
2023/08/10 04:30:17;;;;;;;10.07;3.20;;;;;;;15.63;100.00;97001.94;5044625;28;20360;-60
2023/08/10 04:32:44;;;;;;;3.65;3.30;;;;;;;15.59;100.00;97011.28;5042829;28;20200;-62
2023/08/10 04:35:12;;;;;;;2.70;2.50;;;;;;;15.65;100.00;97005.31;5043210;28;20597;-60
2023/08/10 04:37:38;;;;;;;4.73;2.80;;;;;;;15.63;100.00;97007.28;5042592;28;20203;-59
2023/08/10 04:40:09;;;;;;;5.72;2.70;;;;;;;15.67;100.00;97010.44;5042807;28;20222;-61
2023/08/10 04:42:38;;;;;;;2.90;2.70;;;;;;;15.72;100.00;97011.63;5024704;28;20299;-60
2023/08/10 04:45:05;;;;;;;5.32;2.75;;;;;;;15.71;100.00;97007.28;5049777;28;20230;-62
2023/08/10 04:47:32;;;;;;;4.47;2.90;;;;;;;15.74;100.00;97014.13;5047519;28;20219;-61
2023/08/10 04:49:58;;;;;;;3.05;2.75;;;;;;;15.82;100.00;97009.63;5045720;28;20215;-61
2023/08/10 04:52:27;;;;;;;4.23;2.57;;;;;;;15.91;100.00;97016.63;5043155;28;20644;-61
2023/08/10 04:54:54;;;;;;;4.33;3.00;;;;;;;15.95;100.00;97014.47;5042708;28;20644;-62
2023/08/10 04:57:20;;;;;;;2.47;2.22;;;;;;;15.91;100.00;97011.28;5042042;28;20210;-61
2023/08/10 04:59:47;;;;;;;4.63;3.00;;;;;;;15.98;100.00;97010.66;5043381;28;20215;-61
2023/08/10 05:02:13;;;;;;;2.60;2.50;;;;;;;16.01;100.00;97015.63;5043105;28;20244;-57
2023/08/10 05:04:40;;;;;;;4.63;3.03;;;;;;;16.08;100.00;97017.47;5043048;28;20207;-57
2023/08/10 05:07:07;;;;;;;2.97;2.67;;;;;;;16.16;100.00;97016.59;5043494;28;20672;-60
2023/08/10 05:09:35;;;;;;;5.60;2.90;;;;;;;16.28;100.00;97021.44;5043850;28;20262;-57
2023/08/10 05:12:01;;;;;;;3.17;2.80;;;;;;;16.30;100.00;97021.25;5042178;28;20644;-58
2023/08/10 05:14:28;;;;;;;2.97;2.75;;;;;;;16.33;100.00;97020.94;5043015;28;20282;-56
2023/08/10 05:16:54;;;;;;;2.88;2.50;;;;;;;16.52;100.00;97015.22;5041964;28;20194;-57
2023/08/10 05:19:23;;;;;;;3.80;2.67;;;;;;;16.52;100.00;97025.06;5042807;28;20211;-61
2023/08/10 05:21:50;;;;;;;2.47;2.35;;;;;;;16.57;100.00;97028.09;5041598;28;20208;-61
2023/08/10 05:24:16;;;;;;;2.80;2.60;;;;;;;16.67;100.00;97026.91;5040237;28;20210;-60
2023/08/10 05:26:44;;;;;;;3.50;2.78;;;;;;;16.70;100.00;97028.38;5037911;28;20216;-61
2023/08/10 05:29:10;;;;;;;3.35;2.88;;;;;;;16.86;100.00;97025.66;5041101;28;20794;-60
2023/08/10 05:31:37;;;;;;;3.17;2.97;;;;;;;17.05;100.00;97029.75;5042397;28;20215;-60
2023/08/10 05:34:03;;;;;;;3.45;3.15;;;;;;;17.24;100.00;97035.50;5041638;28;20194;-61
2023/08/10 05:36:30;;;;;;;4.22;2.88;;;;;;;17.38;100.00;97034.78;5040573;28;20204;-63
2023/08/10 05:38:56;;;;;;;3.50;3.20;;;;;;;17.50;100.00;97035.19;5041804;28;20207;-61
2023/08/10 05:41:23;;;;;;;5.68;2.88;;;;;;;17.64;100.00;97028.31;5041554;28;20680;-61
2023/08/10 05:43:51;;;;;;;3.13;2.55;;;;;;;17.82;100.00;97028.81;5042851;28;20211;-61
2023/08/10 05:46:17;;;;;;;4.78;2.80;;;;;;;17.98;100.00;97025.19;5041690;28;20235;-61
2023/08/10 05:48:43;;;;;;;3.13;2.90;;;;;;;18.13;100.00;97028.75;5041697;28;20666;-61
2023/08/10 05:51:10;;;;;;;4.63;2.95;;;;;;;18.21;100.00;97034.03;5041503;28;20206;-61
2023/08/10 05:53:37;;;;;;;3.65;3.13;;;;;;;18.43;100.00;97041.19;5041847;28;20250;-60
2023/08/10 05:56:04;;;;;;;2.83;2.60;;;;;;;18.61;100.00;97047.06;5041712;28;20204;-60
2023/08/10 05:58:31;;;;;;;3.70;3.10;;;;;;;18.82;100.00;97041.81;5043472;28;20218;-61
2023/08/10 06:00:58;;;;;;;3.13;2.83;;;;;;;18.98;100.00;97045.31;5055359;28;20207;-60
2023/08/10 06:03:25;;;;;;;3.40;3.10;;;;;;;19.14;100.00;97045.94;5046790;28;20248;-61
2023/08/10 06:05:51;;;;;;;5.32;3.10;;;;;;;19.30;100.00;97061.84;5040890;28;20211;-61
2023/08/10 06:08:18;;;;;;;3.40;3.10;;;;;;;19.52;100.00;97054.69;5042189;28;20215;-60
2023/08/10 06:10:44;;;;;;;3.20;2.90;;;;;;;19.70;100.00;97057.78;5041724;28;20214;-60
2023/08/10 06:13:11;;;;;;;3.30;3.00;;;;;;;19.89;100.00;97056.34;5041877;28;20212;-62
2023/08/10 06:15:38;;;;;;;3.30;3.00;;;;;;;20.00;100.00;97057.69;5050110;28;20294;-61
2023/08/10 06:18:06;;;;;;;4.22;2.95;;;;;;;20.14;100.00;97056.81;5053376;28;20196;-61
2023/08/10 06:20:33;;;;;;;2.90;2.70;;;;;;;20.30;100.00;97049.31;5050497;28;20231;-61
2023/08/10 06:23:00;;;;;;;2.80;2.50;;;;;;;20.46;100.00;97056.28;5041105;28;20238;-60
2023/08/10 06:25:26;;;;;;;4.35;3.15;;;;;;;20.55;98.33;97060.47;5040836;28;20207;-61
2023/08/10 06:27:54;;;;;;;4.20;3.00;;;;;;;20.69;96.47;97062.25;5040543;28;20227;-60
2023/08/10 06:30:21;;;;;;;3.38;3.00;;;;;;;20.89;96.24;97065.09;5040954;28;20231;-61
2023/08/10 06:32:47;;;;;;;10.55;3.33;;;;;;;21.12;96.05;97062.13;5040030;28;20208;-61
2023/08/10 06:35:15;;;;;;;6.57;3.55;;;;;;;21.32;94.82;97066.59;5040662;28;20212;-61
2023/08/10 06:37:42;;;;;;;5.43;2.88;;;;;;;21.44;93.32;97068.69;5039960;28;20282;-61
2023/08/10 06:40:09;;;;;;;3.35;2.85;;;;;;;21.61;91.33;97073.53;5041504;28;20218;-60
2023/08/10 06:42:36;;;;;;;3.83;3.03;;;;;;;21.70;90.90;97069.66;5040125;28;20252;-62
2023/08/10 06:45:03;;;;;;;5.18;2.95;;;;;;;21.82;91.46;97073.38;5040309;28;20207;-61
2023/08/10 06:47:30;;;;;;;3.38;3.05;;;;;;;21.91;89.59;97074.06;5040100;28;20314;-61
2023/08/10 06:49:56;;;;;;;3.13;2.92;;;;;;;21.94;90.10;97072.84;5040310;28;20211;-60
2023/08/10 06:52:25;;;;;;;2.70;2.50;;;;;;;22.12;87.66;97073.09;5040695;28;20207;-60
2023/08/10 06:54:52;;;;;;;2.88;2.67;;;;;;;22.12;86.70;97067.69;5040818;28;20635;-60
2023/08/10 06:57:19;;;;;;;14.13;3.42;;;;;;;22.24;85.96;97060.69;5039526;28;20540;-61
2023/08/10 06:59:45;;;;;;;17.42;4.10;;;;;;;22.46;85.02;97064.81;5046151;28;20217;-61
2023/08/10 07:02:12;;;;;;;5.72;2.72;;;;;;;22.59;83.11;97072.91;5047795;28;20236;-61
2023/08/10 07:04:39;;;;;;;4.32;2.78;;;;;;;22.63;81.75;97066.09;5044633;28;20200;-61
2023/08/10 07:07:06;;;;;;;4.32;2.97;;;;;;;22.61;84.47;97067.31;5042087;28;20231;-60
2023/08/10 07:09:33;;;;;;;6.82;2.70;;;;;;;22.67;84.38;97071.91;5040838;28;20546;-60
2023/08/10 07:12:00;;;;;;;2.88;2.30;;;;;;;22.87;83.72;97069.19;5040217;28;20212;-61
2023/08/10 07:14:26;;;;;;;2.72;2.45;;;;;;;22.97;82.32;97073.13;5040648;28;20210;-60
2023/08/10 07:16:53;;;;;;;2.40;2.20;;;;;;;22.98;80.80;97076.66;5040831;28;20369;-61
2023/08/10 07:19:21;;;;;;;2.80;2.60;;;;;;;23.07;82.83;97078.91;5040938;28;20203;-60
2023/08/10 07:21:48;;;;;;;4.10;2.50;;;;;;;23.27;83.16;97077.00;5039497;28;20234;-61
2023/08/10 07:24:14;;;;;;;3.40;2.53;;;;;;;23.50;79.46;97078.41;5039962;28;20212;-62
2023/08/10 07:26:42;;;;;;;4.45;2.55;;;;;;;23.41;78.37;97085.91;5039585;28;20640;-61
2023/08/10 07:29:09;;;;;;;2.50;2.30;;;;;;;23.63;79.84;97089.97;5040653;28;20213;-61
2023/08/10 07:31:35;;;;;;;3.10;2.38;;;;;;;23.70;79.52;97079.97;5039813;28;20199;-60
2023/08/10 07:34:02;;;;;;;5.10;2.90;;;;;;;23.80;80.18;97084.94;5041106;28;20195;-60
2023/08/10 07:36:28;;;;;;;7.20;2.83;;;;;;;23.61;77.63;97083.97;5040215;28;20200;-60
2023/08/10 07:38:55;;;;;;;4.47;2.78;;;;;;;23.70;81.26;97077.25;5040019;28;20200;-60
2023/08/10 07:41:22;;;;;;;3.72;2.40;;;;;;;23.82;79.81;97076.59;5039954;28;20273;-59
2023/08/10 07:43:50;;;;;;;2.80;2.60;;;;;;;23.78;77.55;97074.31;5039972;28;20227;-61
2023/08/10 07:46:16;;;;;;;2.45;2.30;;;;;;;23.74;79.12;97070.41;5040982;28;20219;-61
2023/08/10 07:48:43;;;;;;;2.78;2.42;;;;;;;23.86;80.49;97072.41;5040269;28;20227;-60
2023/08/10 07:51:09;;;;;;;2.83;2.50;;;;;;;23.87;74.32;97074.09;5040386;28;20211;-60
2023/08/10 07:53:36;;;;;;;4.40;2.50;;;;;;;23.99;77.55;97070.47;5040337;28;20215;-61
2023/08/10 07:56:02;;;;;;;3.42;2.55;;;;;;;24.08;76.36;97071.88;5041027;28;20203;-61
2023/08/10 07:58:29;;;;;;;2.65;2.45;;;;;;;24.22;77.97;97061.84;5043590;28;20196;-60
2023/08/10 08:00:56;;;;;;;4.20;2.40;;;;;;;24.46;74.79;97066.44;5044928;28;20196;-61
2023/08/10 08:03:23;;;;;;;3.40;2.38;;;;;;;24.65;75.52;97062.75;5043121;28;20231;-61
2023/08/10 08:05:49;;;;;;;5.60;2.80;;;;;;;24.75;76.48;97060.38;5043741;28;20203;-59
2023/08/10 08:08:16;;;;;;;2.40;2.08;;;;;;;24.93;71.80;97061.50;5043275;28;20226;-61
2023/08/10 08:10:42;;;;;;;4.60;2.53;;;;;;;24.90;73.25;97061.94;5044196;28;20677;-61
2023/08/10 08:13:08;;;;;;;5.05;2.58;;;;;;;24.96;71.67;97059.19;5043213;28;20627;-60
2023/08/10 08:15:35;;;;;;;3.75;2.80;;;;;;;24.93;71.95;97064.19;5044150;28;20208;-61
2023/08/10 08:18:39;;;;;;;2.90;2.50;;;;;;;25.04;70.62;97060.75;5044339;28;20274;-61
2023/08/10 08:21:08;;;;;;;6.07;2.50;;;;;;;25.22;71.94;97063.50;5043964;28;20243;-59
2023/08/10 08:23:34;;;;;;;3.25;2.40;;;;;;;25.19;68.57;97053.09;5044672;28;20210;-61
2023/08/10 08:26:01;;;;;;;3.83;2.75;;;;;;;25.21;70.02;97059.13;5043348;28;20218;-61
2023/08/10 08:28:27;;;;;;;3.15;2.85;;;;;;;25.20;67.97;97055.59;5042519;28;20219;-61
2023/08/10 08:30:54;;;;;;;4.63;2.72;;;;;;;25.10;70.22;97049.88;5042990;28;20310;-61
2023/08/10 08:33:20;;;;;;;2.97;2.63;;;;;;;25.22;70.68;97048.06;5042952;28;20532;-60
2023/08/10 08:35:47;;;;;;;5.05;2.88;;;;;;;25.29;70.44;97048.00;5042973;28;20648;-60
2023/08/10 08:38:15;;;;;;;4.13;2.50;;;;;;;25.38;69.15;97046.63;5042865;28;20208;-60
2023/08/10 08:40:42;;;;;;;3.15;2.60;;;;;;;25.42;70.35;97045.13;5042977;28;20208;-61
2023/08/10 08:43:10;;;;;;;2.88;2.55;;;;;;;25.73;69.86;97044.13;5042706;28;20253;-60
2023/08/10 08:45:38;;;;;;;4.72;2.53;;;;;;;25.66;67.49;97043.41;5042987;28;20199;-59
2023/08/10 08:48:07;;;;;;;3.53;2.53;;;;;;;25.73;69.49;97039.56;5043401;28;20234;-60
2023/08/10 08:50:35;;;;;;;4.47;2.97;;;;;;;25.86;68.77;97040.44;5042893;28;20227;-59
2023/08/10 08:53:04;;;;;;;4.60;2.75;;;;;;;25.88;65.62;97041.84;5042699;28;20222;-61
2023/08/10 08:55:32;;;;;;;3.45;2.58;;;;;;;26.15;66.04;97045.84;5043228;28;20241;-60
2023/08/10 08:57:58;;;;;;;3.03;2.58;;;;;;;26.25;64.54;97042.63;5043586;28;20218;-59
2023/08/10 09:00:25;;;;;;;2.88;2.35;;;;;;;26.10;66.10;97047.59;5043567;28;20203;-59
2023/08/10 09:02:51;;;;;;;2.97;2.63;;;;;;;26.38;67.05;97042.41;5042881;28;20235;-61
2023/08/10 09:05:18;;;;;;;5.13;2.88;;;;;;;26.22;65.89;97046.59;5042902;28;20218;-59
2023/08/10 09:07:44;;;;;;;2.63;2.42;;;;;;;26.37;68.10;97043.44;5041877;28;20223;-60
2023/08/10 09:10:11;;;;;;;5.40;3.20;;;;;;;26.35;66.06;97037.44;5042178;28;20196;-60
2023/08/10 09:12:41;;;;;;;4.18;3.10;;;;;;;26.37;65.99;97032.59;5042725;28;20208;-59
2023/08/10 09:15:09;;;;;;;2.92;2.63;;;;;;;26.33;66.24;97030.56;5043756;28;20195;-60
2023/08/10 09:17:38;;;;;;;3.72;2.53;;;;;;;26.33;64.44;97031.41;5046355;28;20203;-60
2023/08/10 09:20:08;;;;;;;2.60;2.40;;;;;;;26.64;65.81;97028.38;5042907;28;20222;-60
2023/08/10 09:22:36;;;;;;;3.50;2.40;;;;;;;26.72;65.63;97028.03;5042325;28;20693;-60
2023/08/10 09:25:03;;;;;;;2.70;2.50;;;;;;;26.87;62.46;97021.34;5042265;28;20214;-59
2023/08/10 09:27:30;;;;;;;2.83;2.47;;;;;;;26.85;63.53;97021.59;5041621;28;20215;-60
2023/08/10 09:29:59;;;;;;;4.60;2.33;;;;;;;26.79;64.98;97019.78;5041799;28;20279;-60
2023/08/10 09:32:25;;;;;;;2.92;2.72;;;;;;;26.80;63.48;97021.44;5042762;28;20211;-59
2023/08/10 09:34:52;;;;;;;2.58;2.38;;;;;;;27.04;64.98;97014.97;5042215;28;20218;-60
2023/08/10 09:37:19;;;;;;;4.68;2.70;;;;;;;26.97;61.36;97018.88;5042573;28;20222;-60
2023/08/10 09:39:46;;;;;;;2.58;2.38;;;;;;;27.14;63.07;97009.75;5042463;28;20704;-59
2023/08/10 09:42:12;;;;;;;2.50;2.30;;;;;;;26.99;63.32;97005.91;5044090;28;20219;-61
2023/08/10 09:44:43;;;;;;;2.50;2.30;;;;;;;27.21;64.45;97004.19;5044130;28;20192;-59
2023/08/10 09:47:11;;;;;;;4.05;2.50;;;;;;;27.29;64.21;97011.16;5043126;28;20633;-60
2023/08/10 09:49:40;;;;;;;3.97;2.33;;;;;;;27.46;64.45;96999.31;5042059;28;20211;-59
2023/08/10 09:52:07;;;;;;;4.72;2.42;;;;;;;27.59;62.43;96996.34;5041927;28;20199;-59
2023/08/10 09:54:34;;;;;;;3.22;2.28;;;;;;;27.54;60.47;97001.66;5041832;28;20203;-59
2023/08/10 09:57:02;;;;;;;3.58;2.20;;;;;;;27.64;60.93;96996.44;5041025;28;20204;-59
2023/08/10 09:59:28;;;;;;;2.13;1.92;;;;;;;27.77;62.34;96997.22;5044488;28;20290;-60
2023/08/10 10:01:55;;;;;;;2.47;2.28;;;;;;;27.68;61.97;96986.72;5044516;28;20699;-59
2023/08/10 10:04:24;;;;;;;2.80;2.60;;;;;;;27.46;63.42;96980.31;5046914;28;20206;-60
2023/08/10 10:06:51;;;;;;;4.30;2.47;;;;;;;27.53;62.34;96997.28;5043434;28;20227;-60
2023/08/10 10:09:18;;;;;;;2.42;2.20;;;;;;;27.51;61.32;96991.28;5043247;28;20227;-60
2023/08/10 10:11:45;;;;;;;2.95;2.60;;;;;;;27.58;60.02;96985.72;5042054;28;20204;-60
2023/08/10 10:14:12;;;;;;;2.90;2.10;;;;;;;27.68;58.02;96989.44;5042112;28;20195;-60
2023/08/10 10:16:38;;;;;;;3.35;2.28;;;;;;;27.69;60.46;96971.25;5041444;28;20218;-60
2023/08/10 10:19:05;;;;;;;2.30;2.13;;;;;;;27.85;61.33;96973.16;5040003;28;20644;-59
2023/08/10 10:21:33;;;;;;;2.35;2.15;;;;;;;27.96;61.38;96966.84;5040873;28;20972;-60
2023/08/10 10:23:59;;;;;;;2.72;2.47;;;;;;;28.07;60.08;96966.00;5040822;28;20200;-60
2023/08/10 10:26:26;;;;;;;2.50;2.30;;;;;;;28.20;61.67;96956.69;5040553;28;20218;-59
2023/08/10 10:29:17;;;;;;;2.92;2.72;;;;;;;27.95;58.53;96956.25;5041329;28;20237;-60
2023/08/10 10:31:43;;;;;;;3.47;2.65;;;;;;;27.85;56.86;96951.44;5029748;28;20209;-60
2023/08/10 10:34:12;;;;;;;4.30;2.30;;;;;;;28.04;59.48;96938.44;5041118;28;20196;-60
2023/08/10 10:36:40;;;;;;;2.83;2.50;;;;;;;28.13;59.58;96942.44;5040814;28;20206;-60
2023/08/10 10:39:08;;;;;;;2.83;2.50;;;;;;;27.96;58.80;96931.50;5040834;28;20200;-60
2023/08/10 10:41:35;;;;;;;4.80;2.72;;;;;;;27.94;59.85;96930.13;5040610;28;20199;-60
2023/08/10 10:44:04;;;;;;;3.05;2.30;;;;;;;28.02;59.37;96930.53;5040845;28;20196;-60
2023/08/10 10:46:38;;;;;;;2.90;2.22;;;;;;;27.89;60.83;96925.41;5040552;28;20261;-61
2023/08/10 10:49:15;;;;;;;2.95;2.10;;;;;;;27.83;58.50;96925.56;5041108;28;20231;-60
2023/08/10 10:51:52;;;;;;;2.65;2.38;;;;;;;27.93;59.16;96928.47;5041119;28;20651;-59
2023/08/10 10:54:19;;;;;;;2.40;2.17;;;;;;;27.96;58.29;96930.69;5040224;28;20195;-61
2023/08/10 10:56:45;;;;;;;3.28;2.45;;;;;;;27.89;56.45;96925.41;5040879;28;20214;-60
2023/08/10 10:59:13;;;;;;;3.30;2.40;;;;;;;28.14;57.84;96927.75;5040455;28;20204;-60
2023/08/10 11:01:40;;;;;;;2.80;2.50;;;;;;;28.19;57.67;96922.41;5040315;28;20238;-60
2023/08/10 11:04:07;;;;;;;2.53;2.33;;;;;;;28.15;57.54;96907.66;5040481;28;20203;-60
2023/08/10 11:06:37;;;;;;;2.67;2.47;;;;;;;28.18;58.52;96912.59;5040231;28;20595;-61
2023/08/10 11:09:07;;;;;;;2.83;2.63;;;;;;;28.12;57.57;96902.72;5040427;28;20230;-60
2023/08/10 11:11:33;;;;;;;4.65;2.42;;;;;;;28.05;57.73;96910.19;5040827;28;20203;-59
2023/08/10 11:13:59;;;;;;;2.85;2.53;;;;;;;27.91;59.63;96917.84;5041031;28;20238;-60
2023/08/10 11:16:26;;;;;;;2.63;2.40;;;;;;;28.07;58.74;96916.22;5040549;28;20199;-59
2023/08/10 11:18:53;;;;;;;2.47;2.28;;;;;;;28.29;59.46;96911.69;5040857;28;20199;-60
2023/08/10 11:21:21;;;;;;;3.03;2.00;;;;;;;28.49;58.94;96919.34;5039941;28;20663;-60
2023/08/10 11:23:47;;;;;;;2.97;2.72;;;;;;;28.50;57.61;96910.94;5041121;28;20199;-60
2023/08/10 11:26:16;;;;;;;2.38;2.17;;;;;;;28.60;57.88;96907.53;5040588;28;20219;-59
2023/08/10 11:28:42;;;;;;;2.10;2.00;;;;;;;28.65;57.72;96904.88;5040359;28;20223;-60